Holland, Pennsylvania
Current Conditions -  °F | °C
As of 12:54 AM on Monday 20 Oct 2014 (Local Time) from KPNE Reporting Station
Clear Clear  
Wind Chill: 40°   Ceiling: Unl
Heat Index: 40°   Visibility: 10mi
Dew Point: 32°   Wind: 0mph
Humidity: 73%   Direction: NA
Pressure: 30.12"   Gusts: NA
Location:  40.1871°N, 75.0054°W
Report Text: KPNE 200454Z 00000KT 10SM CLR 04/00 A3012 RMK AO2 SLP199 T00440000 401330044
Loading
Personal Weather Stations






























Interactive Weather Map
Tropical Storm Tracking
New forecast layout! Learn more

10-Day Weather Forecast

Advertisements
Track Severe Weather on mobile